Terminal Aerodrome Forecast
Issued by NWS Tiyan, Guam

Current Version | Previous Version | Graphics & Text | Print | Product List | Glossary On
Versions: 1 2 3 4 5 6 7 8 9 10 11 12 13 14 15 16 17 18 19 20 21 22 23 24 25 26 27 28 29 30
750
FTPQ31 PGUM 211120
TAFGUM
TAF
PGUM 211120Z 2112/2218 06008KT P6SM VCSH SCT020 SCT030
     FM220100 06015G25KT P6SM VCSH SCT020 SCT050 SCT120=

USA.gov is the U.S. government's official web portal to all federal, state and local government web resources and services.